Time;durP1;ratioP1;P1;durP2;ratioP2;P2;SDS_P1;SDS_P2;PMS_P1;PMS_P2;Temp;Humidity;BMP_temperature;BMP_pressure;BME280_temperature;BME280_humidity;BME280_pressure;Samples;Min_cycle;Max_cycle;Signal;HPM_P1;HPM_P2
2022/10/08 00:01:44;;;;;;;1999.90;999.90;;;14.40;99.90;;;;;;5061399;28;20436;-65
2022/10/08 00:04:11;;;;;;;1999.90;999.90;;;14.30;99.90;;;;;;5052169;28;20467;-65
2022/10/08 00:06:38;;;;;;;1999.90;999.90;;;14.30;99.90;;;;;;5051465;28;20471;-65
2022/10/08 00:09:06;;;;;;;1999.90;999.90;;;14.20;99.90;;;;;;5051873;28;20462;-65
2022/10/08 00:11:35;;;;;;;1999.90;999.90;;;14.10;99.90;;;;;;5051592;28;20452;-65
2022/10/08 00:14:02;;;;;;;1999.90;999.90;;;14.00;99.90;;;;;;5051201;28;20475;-65
2022/10/08 00:16:31;;;;;;;1999.90;999.90;;;13.90;99.90;;;;;;5051463;28;20476;-65
2022/10/08 00:19:01;;;;;;;1999.90;999.90;;;13.80;99.90;;;;;;5051280;28;20451;-65
2022/10/08 00:21:31;;;;;;;1999.90;999.90;;;13.70;99.90;;;;;;5051456;28;20452;-65
2022/10/08 00:23:58;;;;;;;1999.90;999.90;;;13.70;99.90;;;;;;5050995;28;20578;-65
2022/10/08 00:26:26;;;;;;;1999.90;999.90;;;13.80;99.90;;;;;;5051206;28;21155;-65
2022/10/08 00:28:55;;;;;;;1999.90;999.90;;;13.80;99.90;;;;;;5051125;28;20536;-65
2022/10/08 00:31:24;;;;;;;1999.90;999.90;;;13.90;99.90;;;;;;5061161;28;20445;-65
2022/10/08 00:33:53;;;;;;;1999.90;999.90;;;14.00;99.90;;;;;;5056144;28;20489;-65
2022/10/08 00:36:23;;;;;;;1999.90;999.90;;;14.00;99.90;;;;;;5050885;28;20483;-65
2022/10/08 00:38:55;;;;;;;1999.90;999.90;;;14.10;99.90;;;;;;5051104;28;20448;-65
2022/10/08 00:41:24;;;;;;;1999.90;999.90;;;14.10;99.90;;;;;;5050672;28;20454;-65
2022/10/08 00:43:54;;;;;;;1999.90;999.90;;;14.20;99.90;;;;;;5050894;28;20475;-65
2022/10/08 00:46:25;;;;;;;1999.90;999.90;;;14.20;99.90;;;;;;5050904;28;20478;-65
2022/10/08 00:49:00;;;;;;;1999.90;999.90;;;14.20;99.90;;;;;;5051021;28;20439;-65
2022/10/08 00:51:29;;;;;;;1999.90;999.90;;;14.20;99.90;;;;;;5050224;28;21101;-65
2022/10/08 00:53:56;;;;;;;1999.90;999.90;;;14.20;99.90;;;;;;5050293;28;20483;-65
2022/10/08 00:56:25;;;;;;;1999.90;999.90;;;14.10;99.90;;;;;;5050105;28;20456;-65
2022/10/08 00:58:52;;;;;;;1999.90;999.90;;;13.90;99.90;;;;;;5050266;28;20451;-65
2022/10/08 01:01:19;;;;;;;1999.90;999.90;;;13.80;99.90;;;;;;5063325;28;20442;-65
2022/10/08 01:03:46;;;;;;;1999.90;999.90;;;13.80;99.90;;;;;;5051879;28;20466;-65
2022/10/08 01:06:21;;;;;;;1999.90;999.90;;;13.70;99.90;;;;;;5050672;28;20456;-65
2022/10/08 01:08:57;;;;;;;1999.90;999.90;;;13.60;99.90;;;;;;5050288;28;20446;-65
2022/10/08 01:11:38;;;;;;;1999.90;999.90;;;13.50;99.90;;;;;;5050132;28;20445;-65
2022/10/08 01:14:15;;;;;;;1999.90;999.90;;;13.40;99.90;;;;;;5050234;28;20822;-65
2022/10/08 01:16:50;;;;;;;1999.90;999.90;;;13.30;99.90;;;;;;5050084;28;21009;-65
2022/10/08 01:19:39;;;;;;;1999.90;999.90;;;13.30;99.90;;;;;;5049833;28;20449;-65
2022/10/08 01:22:16;;;;;;;1999.90;999.90;;;13.30;99.90;;;;;;5050375;28;20440;-65
2022/10/08 01:27:41;;;;;;;1999.90;999.90;;;13.40;99.90;;;;;;5050278;28;20497;-65
2022/10/08 01:30:12;;;;;;;1999.90;999.90;;;13.40;99.90;;;;;;5062980;28;20488;-65
2022/10/08 01:32:43;;;;;;;1999.90;999.90;;;13.40;99.90;;;;;;5055254;28;20439;-65
2022/10/08 01:35:14;;;;;;;1999.90;999.90;;;13.40;99.90;;;;;;5050026;28;20859;-65
2022/10/08 01:37:43;;;;;;;1999.90;999.90;;;13.30;99.90;;;;;;5050249;28;20455;-65
2022/10/08 01:40:16;;;;;;;1999.90;999.90;;;13.40;99.90;;;;;;5049944;28;20448;-65
2022/10/08 01:42:45;;;;;;;1999.90;999.90;;;13.40;99.90;;;;;;5050231;28;20455;-65
2022/10/08 01:45:16;;;;;;;1999.90;999.90;;;13.50;99.90;;;;;;5050243;28;20467;-65
2022/10/08 01:47:45;;;;;;;1999.90;999.90;;;13.40;99.90;;;;;;5050392;28;20572;-65
2022/10/08 01:50:17;;;;;;;1999.90;999.90;;;13.50;99.90;;;;;;5050094;28;20452;-65
2022/10/08 01:52:48;;;;;;;1999.90;999.90;;;13.50;99.90;;;;;;5049007;28;20452;-66
2022/10/08 01:55:19;;;;;;;1999.90;999.90;;;13.50;99.90;;;;;;5049644;28;21021;-65
2022/10/08 01:57:48;;;;;;;1999.90;999.90;;;13.50;99.90;;;;;;5050349;28;20456;-65
2022/10/08 02:00:16;;;;;;;1999.90;999.90;;;13.50;99.90;;;;;;5058927;28;20450;-65
2022/10/08 02:02:43;;;;;;;1999.90;999.90;;;13.50;99.90;;;;;;5057483;28;20447;-65
2022/10/08 02:05:11;;;;;;;1999.90;999.90;;;13.60;99.90;;;;;;5049620;28;20467;-65
2022/10/08 02:07:41;;;;;;;1999.90;999.90;;;13.60;99.90;;;;;;5049436;28;20452;-65
2022/10/08 02:10:11;;;;;;;1999.90;999.90;;;13.60;99.90;;;;;;5049902;28;20448;-65
2022/10/08 02:12:39;;;;;;;1999.90;999.90;;;13.70;99.90;;;;;;5049190;28;20448;-65
2022/10/08 02:15:11;;;;;;;1999.90;999.90;;;13.70;99.90;;;;;;5049657;28;20549;-65
2022/10/08 02:17:46;;;;;;;1999.90;999.90;;;13.60;99.90;;;;;;5049533;28;20456;-65
2022/10/08 02:20:20;;;;;;;1999.90;999.90;;;13.60;99.90;;;;;;5049677;28;20463;-65
2022/10/08 02:22:52;;;;;;;1999.90;999.90;;;13.60;99.90;;;;;;5062191;28;20443;-65
2022/10/08 02:25:24;;;;;;;1999.90;999.90;;;13.60;99.90;;;;;;5068781;28;21097;-65
2022/10/08 02:27:57;;;;;;;1999.90;999.90;;;13.70;99.90;;;;;;5068651;28;20822;-65
2022/10/08 02:30:28;;;;;;;1999.90;999.90;;;13.70;99.90;;;;;;5067251;28;20451;-65
2022/10/08 02:33:00;;;;;;;1999.90;999.90;;;13.60;99.90;;;;;;5055863;28;20466;-65
2022/10/08 02:35:33;;;;;;;1999.90;999.90;;;13.50;99.90;;;;;;5049303;28;20492;-65
2022/10/08 02:38:04;;;;;;;1999.90;999.90;;;13.50;99.90;;;;;;5049593;28;20448;-65
2022/10/08 02:40:33;;;;;;;1999.90;999.90;;;13.40;99.90;;;;;;5049576;28;20439;-65
2022/10/08 02:43:05;;;;;;;1999.90;999.90;;;13.40;99.90;;;;;;5048847;28;20444;-65
2022/10/08 02:45:41;;;;;;;1999.90;999.90;;;13.40;99.90;;;;;;5049377;28;20517;-65
2022/10/08 02:48:14;;;;;;;1999.90;999.90;;;13.30;99.90;;;;;;5049438;28;20976;-65
2022/10/08 02:50:43;;;;;;;1999.90;999.90;;;13.30;99.90;;;;;;5049191;28;20505;-65
2022/10/08 02:53:13;;;;;;;1999.90;999.90;;;13.30;99.90;;;;;;5048994;28;20452;-65
2022/10/08 02:55:48;;;;;;;1999.90;999.90;;;13.30;99.90;;;;;;5049168;28;20495;-65
2022/10/08 02:58:15;;;;;;;1999.90;999.90;;;13.30;99.90;;;;;;5049419;28;20448;-65
2022/10/08 03:00:49;;;;;;;1999.90;999.90;;;13.40;99.90;;;;;;5061289;28;20976;-65
2022/10/08 03:03:21;;;;;;;1999.90;999.90;;;13.50;99.90;;;;;;5059237;28;20451;-65
2022/10/08 03:05:51;;;;;;;1999.90;999.90;;;13.50;99.90;;;;;;5052507;28;20471;-65
2022/10/08 03:08:20;;;;;;;1999.90;999.90;;;13.60;99.90;;;;;;5052952;28;21012;-65
2022/10/08 03:10:48;;;;;;;1999.90;999.90;;;13.60;99.90;;;;;;5052676;28;20451;-65
2022/10/08 03:13:15;;;;;;;1999.90;999.90;;;13.70;99.90;;;;;;5052594;28;20832;-65
2022/10/08 03:15:44;;;;;;;1999.90;999.90;;;13.70;99.90;;;;;;5052701;28;20488;-65
2022/10/08 03:18:12;;;;;;;1999.90;999.90;;;13.70;99.90;;;;;;5052386;28;20474;-65
2022/10/08 03:20:43;;;;;;;1999.90;999.90;;;13.70;99.90;;;;;;5052846;28;20456;-65
2022/10/08 03:23:12;;;;;;;1999.90;999.90;;;13.70;99.90;;;;;;5052429;28;20533;-65
2022/10/08 03:25:38;;;;;;;1999.90;999.90;;;13.80;99.90;;;;;;5052635;28;20463;-65
2022/10/08 03:28:05;;;;;;;1999.90;999.90;;;13.80;99.90;;;;;;5052443;28;20550;-65
2022/10/08 03:30:32;;;;;;;1999.90;999.90;;;13.80;99.90;;;;;;5062029;28;20443;-65
2022/10/08 03:33:00;;;;;;;1999.90;999.90;;;13.80;99.90;;;;;;5053980;28;20444;-65
2022/10/08 03:35:26;;;;;;;1999.90;999.90;;;13.80;99.90;;;;;;5052278;28;20498;-65
2022/10/08 03:37:53;;;;;;;1999.90;999.90;;;13.80;99.90;;;;;;5052341;28;20459;-65
2022/10/08 03:40:20;;;;;;;1999.90;999.90;;;13.90;99.90;;;;;;5052367;28;20950;-65
2022/10/08 03:42:47;;;;;;;1999.90;999.90;;;13.90;99.90;;;;;;5051998;28;20448;-65
2022/10/08 03:45:14;;;;;;;1999.90;999.90;;;14.00;99.90;;;;;;5051950;28;20467;-65
2022/10/08 03:47:40;;;;;;;1999.90;999.90;;;13.90;99.90;;;;;;5052651;28;20444;-65
2022/10/08 03:50:09;;;;;;;1999.90;999.90;;;13.90;99.90;;;;;;5052411;28;20452;-65
2022/10/08 03:52:36;;;;;;;1999.90;999.90;;;13.90;99.90;;;;;;5052170;28;20452;-65
2022/10/08 03:55:03;;;;;;;1999.90;999.90;;;13.90;99.90;;;;;;5051858;28;21032;-65
2022/10/08 03:57:30;;;;;;;1999.90;999.90;;;13.90;99.90;;;;;;5052096;28;20448;-65
2022/10/08 03:59:57;;;;;;;1999.90;999.90;;;14.00;99.90;;;;;;5058105;28;20443;-65
2022/10/08 04:02:23;;;;;;;1999.90;999.90;;;14.00;99.90;;;;;;5068577;28;20932;-65
2022/10/08 04:04:50;;;;;;;1999.90;999.90;;;14.00;99.90;;;;;;5051814;28;20452;-65
2022/10/08 04:07:18;;;;;;;1999.90;999.90;;;14.00;99.90;;;;;;5051857;28;20448;-65
2022/10/08 04:09:45;;;;;;;1999.90;999.90;;;14.00;99.90;;;;;;5051889;28;20467;-65
2022/10/08 04:12:12;;;;;;;1999.90;999.90;;;14.00;99.90;;;;;;5051300;28;20447;-65
2022/10/08 04:14:38;;;;;;;1999.90;999.90;;;13.90;99.90;;;;;;5050879;28;20488;-65
2022/10/08 04:17:05;;;;;;;1999.90;999.90;;;13.90;99.90;;;;;;5051654;28;20454;-65
2022/10/08 04:19:32;;;;;;;1999.90;999.90;;;14.00;99.90;;;;;;5051834;28;20444;-65
2022/10/08 04:21:59;;;;;;;1999.90;999.90;;;14.00;99.90;;;;;;5051102;28;20455;-65
2022/10/08 04:24:27;;;;;;;1999.90;999.90;;;14.00;99.90;;;;;;5051484;28;20444;-65
2022/10/08 04:26:53;;;;;;;1999.90;999.90;;;13.90;99.90;;;;;;5051100;28;20483;-65
2022/10/08 04:29:20;;;;;;;1999.90;999.90;;;13.90;99.90;;;;;;5053192;28;20463;-65
2022/10/08 04:31:47;;;;;;;1999.90;999.90;;;13.90;99.90;;;;;;5062263;28;20452;-65
2022/10/08 04:34:14;;;;;;;1999.90;999.90;;;13.90;99.90;;;;;;5052462;28;20458;-65
2022/10/08 04:36:40;;;;;;;1999.90;999.90;;;14.00;99.90;;;;;;5051124;28;20468;-65
2022/10/08 04:39:07;;;;;;;1999.90;999.90;;;14.00;99.90;;;;;;5051005;28;20456;-65
2022/10/08 04:41:35;;;;;;;1999.90;999.90;;;14.00;99.90;;;;;;5050884;28;20456;-65
2022/10/08 04:44:02;;;;;;;1999.90;999.90;;;14.00;99.90;;;;;;5051020;28;20452;-65
2022/10/08 04:46:29;;;;;;;1999.90;999.90;;;14.00;99.90;;;;;;5051147;28;20476;-65
2022/10/08 04:48:57;;;;;;;1999.90;999.90;;;13.90;99.90;;;;;;5050944;28;20452;-65
2022/10/08 04:51:26;;;;;;;1999.90;999.90;;;14.00;99.90;;;;;;5050902;28;20460;-65
2022/10/08 04:53:53;;;;;;;1999.90;999.90;;;14.00;99.90;;;;;;5050543;28;20443;-65
2022/10/08 04:56:22;;;;;;;1999.90;999.90;;;14.00;99.90;;;;;;5050714;28;20496;-65
2022/10/08 04:58:50;;;;;;;1999.90;999.90;;;14.00;99.90;;;;;;5050817;28;20467;-65
2022/10/08 05:01:21;;;;;;;1999.90;999.90;;;14.00;99.90;;;;;;5058148;28;20475;-65
2022/10/08 05:03:49;;;;;;;1999.90;999.90;;;13.90;99.90;;;;;;5055668;28;20950;-65
2022/10/08 05:06:17;;;;;;;1999.90;999.90;;;13.80;99.90;;;;;;5050256;28;20475;-65
2022/10/08 05:08:45;;;;;;;1999.90;999.90;;;13.60;99.90;;;;;;5050531;28;20447;-65
2022/10/08 05:11:12;;;;;;;1999.90;999.90;;;13.60;99.90;;;;;;5050466;28;20448;-65
2022/10/08 05:13:39;;;;;;;1999.90;999.90;;;13.50;99.90;;;;;;5050785;28;20448;-65
2022/10/08 05:16:09;;;;;;;1999.90;999.90;;;13.40;99.90;;;;;;5050247;28;21029;-65
2022/10/08 05:18:37;;;;;;;1999.90;999.90;;;13.40;99.90;;;;;;5050700;28;20454;-65
2022/10/08 05:21:05;;;;;;;1999.90;999.90;;;13.30;99.90;;;;;;5050016;28;20455;-65
2022/10/08 05:23:32;;;;;;;1999.90;999.90;;;13.30;99.90;;;;;;5050581;28;20452;-65
2022/10/08 05:26:01;;;;;;;1999.90;999.90;;;13.20;99.90;;;;;;5049756;28;20468;-65
2022/10/08 05:28:28;;;;;;;1999.90;999.90;;;13.10;99.90;;;;;;5050588;28;20456;-65
2022/10/08 05:30:59;;;;;;;1999.90;999.90;;;13.00;99.90;;;;;;5062006;28;20452;-65
2022/10/08 05:33:27;;;;;;;1999.90;999.90;;;12.90;99.90;;;;;;5052484;28;20455;-65
2022/10/08 05:35:54;;;;;;;1999.90;999.90;;;12.90;99.90;;;;;;5050101;28;20492;-65
2022/10/08 05:38:21;;;;;;;1999.90;999.90;;;12.70;99.90;;;;;;5059743;28;20458;-65
2022/10/08 05:40:48;;;;;;;1999.90;999.90;;;12.70;99.90;;;;;;5069438;28;20885;-65
2022/10/08 05:43:14;;;;;;;1999.90;999.90;;;12.70;99.90;;;;;;5069112;28;20458;-64
2022/10/08 05:45:49;;;;;;;1999.90;999.90;;;12.70;99.90;;;;;;5069319;28;20474;-65
2022/10/08 05:48:16;;;;;;;1999.90;999.90;;;12.60;99.90;;;;;;5069065;28;20439;-65
2022/10/08 05:50:44;;;;;;;1999.90;999.90;;;12.60;99.90;;;;;;5069333;28;20451;-65
2022/10/08 05:53:11;;;;;;;1999.90;999.90;;;12.50;99.90;;;;;;5069510;28;21054;-65
2022/10/08 05:55:37;;;;;;;1999.90;999.90;;;12.50;99.90;;;;;;5069131;28;20498;-65
2022/10/08 05:58:04;;;;;;;1999.90;999.90;;;12.50;99.90;;;;;;5069506;28;20454;-65
2022/10/08 06:00:31;;;;;;;1999.90;999.90;;;12.50;99.90;;;;;;5066756;28;20451;-65
2022/10/08 06:02:58;;;;;;;1999.90;999.90;;;12.60;99.90;;;;;;5056809;28;20446;-65
2022/10/08 06:05:24;;;;;;;1999.90;999.90;;;12.50;99.90;;;;;;5049604;28;20989;-65
2022/10/08 06:07:56;;;;;;;1999.90;999.90;;;12.60;99.90;;;;;;5050216;28;20462;-65
2022/10/08 06:10:23;;;;;;;1999.90;999.90;;;12.50;99.90;;;;;;5049615;28;20488;-65
2022/10/08 06:12:50;;;;;;;1999.90;999.90;;;12.60;99.90;;;;;;5049820;28;20451;-65
2022/10/08 06:15:17;;;;;;;1999.90;999.90;;;12.60;99.90;;;;;;5049175;28;20502;-65
2022/10/08 06:17:43;;;;;;;1999.90;999.90;;;12.60;99.90;;;;;;5050090;28;20456;-65
2022/10/08 06:20:10;;;;;;;1999.90;999.90;;;12.70;99.90;;;;;;5049631;28;20459;-65
2022/10/08 06:22:37;;;;;;;1999.90;999.90;;;12.70;99.90;;;;;;5049273;28;20436;-65
2022/10/08 06:25:06;;;;;;;1999.90;999.90;;;12.70;99.90;;;;;;5050254;28;20472;-65
2022/10/08 06:27:33;;;;;;;1999.90;999.90;;;12.70;99.90;;;;;;5062270;28;20474;-65
2022/10/08 06:30:00;;;;;;;1999.90;999.90;;;12.70;99.90;;;;;;5059328;28;20454;-65
2022/10/08 06:32:26;;;;;;;1999.90;999.90;;;12.70;99.90;;;;;;5062468;28;20455;-66
2022/10/08 06:34:53;;;;;;;1999.90;999.90;;;12.70;99.90;;;;;;5062441;28;20481;-65
2022/10/08 06:37:20;;;;;;;1999.90;999.90;;;12.80;99.90;;;;;;5053339;28;20463;-65
2022/10/08 06:39:47;;;;;;;1999.90;999.90;;;12.80;99.90;;;;;;5063657;28;20951;-65
2022/10/08 06:42:15;;;;;;;1999.90;999.90;;;12.80;99.90;;;;;;5067688;28;20447;-65
2022/10/08 06:44:42;;;;;;;1999.90;999.90;;;12.90;99.90;;;;;;5065310;28;20458;-66
2022/10/08 06:47:08;;;;;;;1999.90;999.90;;;12.90;99.90;;;;;;5061324;28;20451;-66
2022/10/08 06:49:35;;;;;;;1999.90;999.90;;;13.00;99.90;;;;;;5052945;28;20451;-66
2022/10/08 06:52:02;;;;;;;1999.90;999.90;;;13.10;99.90;;;;;;5053012;28;20487;-66
2022/10/08 06:54:29;;;;;;;1999.90;999.90;;;13.10;99.90;;;;;;5052821;28;20460;-67
2022/10/08 06:56:55;;;;;;;1999.90;999.90;;;13.20;99.90;;;;;;5052827;28;20487;-67
2022/10/08 06:59:24;;;;;;;1999.90;999.90;;;13.20;99.90;;;;;;5057403;28;20452;-67
2022/10/08 07:01:50;;;;;;;1999.90;999.90;;;13.30;99.90;;;;;;5064795;28;20956;-67
2022/10/08 07:04:17;;;;;;;1999.90;999.90;;;13.40;99.90;;;;;;5056096;28;20850;-66
2022/10/08 07:06:44;;;;;;;1999.90;999.90;;;13.50;99.90;;;;;;5055298;28;20475;-65
2022/10/08 07:09:12;;;;;;;1999.90;999.90;;;13.60;99.90;;;;;;5054763;28;20443;-65
2022/10/08 07:11:39;;;;;;;1999.90;999.90;;;13.70;99.90;;;;;;5056689;28;20517;-65
2022/10/08 07:14:05;;;;;;;1999.90;999.90;;;13.90;99.90;;;;;;5054881;28;20450;-66
2022/10/08 07:16:34;;;;;;;1999.90;999.90;;;14.10;99.90;;;;;;5059614;28;20483;-66
2022/10/08 07:19:00;;;;;;;1999.90;999.90;;;14.20;99.90;;;;;;5053793;28;21105;-65
2022/10/08 07:21:28;;;;;;;1999.90;999.90;;;14.30;99.90;;;;;;5061318;28;20457;-65
2022/10/08 07:23:56;;;;;;;1999.90;999.90;;;14.50;99.90;;;;;;5062885;28;20459;-65
2022/10/08 07:26:24;;;;;;;1999.90;999.90;;;14.50;99.90;;;;;;5064390;28;20819;-65
2022/10/08 07:28:54;;;;;;;1999.90;999.90;;;14.70;99.90;;;;;;5060581;28;20566;-64
2022/10/08 07:31:23;;;;;;;1999.90;999.90;;;14.90;99.90;;;;;;5066790;28;20439;-65
2022/10/08 07:33:51;;;;;;;1999.90;999.90;;;14.90;99.90;;;;;;5057530;28;20451;-66
2022/10/08 07:36:20;;;;;;;1999.90;999.90;;;15.20;99.90;;;;;;5055672;28;20488;-65
2022/10/08 07:38:47;;;;;;;1999.90;999.90;;;15.30;99.90;;;;;;5057853;28;20439;-66
2022/10/08 07:41:15;;;;;;;1999.90;999.90;;;15.40;99.90;;;;;;5055384;28;20844;-65
2022/10/08 07:43:42;;;;;;;1999.90;999.90;;;15.50;99.90;;;;;;5057810;28;20447;-66
2022/10/08 07:46:09;;;;;;;1999.90;999.90;;;15.70;99.90;;;;;;5054694;28;21298;-68
2022/10/08 07:48:36;;;;;;;1999.90;999.90;;;15.80;99.90;;;;;;5053415;28;20795;-66
2022/10/08 07:51:09;;;;;;;1999.90;999.90;;;16.00;99.90;;;;;;5054470;28;20447;-66
2022/10/08 07:53:36;;;;;;;1999.90;999.90;;;16.00;99.90;;;;;;5056790;28;20822;-65
2022/10/08 07:56:03;;;;;;;1999.90;999.90;;;16.00;99.90;;;;;;5054161;28;20499;-65
2022/10/08 07:58:30;;;;;;;1999.90;999.90;;;16.00;99.90;;;;;;5058721;28;20448;-65
2022/10/08 08:00:57;;;;;;;1999.90;999.90;;;16.00;99.90;;;;;;5064205;28;20439;-65
2022/10/08 08:03:24;;;;;;;1999.90;999.90;;;16.00;99.90;;;;;;5058854;28;20201;-65
2022/10/08 08:05:52;;;;;;;1999.90;999.90;;;16.10;99.90;;;;;;5055921;28;20809;-65
2022/10/08 08:08:23;;;;;;;1999.90;999.90;;;16.10;99.90;;;;;;5056765;28;20546;-65
2022/10/08 08:10:55;;;;;;;1999.90;999.90;;;16.20;99.90;;;;;;5054755;28;20451;-65
2022/10/08 08:13:22;;;;;;;1999.90;999.90;;;16.30;99.90;;;;;;5055887;28;20949;-65
2022/10/08 08:15:56;;;;;;;1999.90;999.90;;;16.30;99.90;;;;;;5050901;28;20491;-66
2022/10/08 08:18:22;;;;;;;1999.90;999.90;;;16.20;99.90;;;;;;5055528;28;20817;-65
2022/10/08 08:20:49;;;;;;;1999.90;999.90;;;16.20;99.90;;;;;;5068894;28;20447;-65
2022/10/08 08:23:16;;;;;;;1999.90;999.90;;;16.10;99.90;;;;;;5054552;28;20988;-65
2022/10/08 08:25:44;;;;;;;1999.90;999.90;;;16.10;99.90;;;;;;5056759;28;20459;-66
2022/10/08 08:28:11;;;;;;;1999.90;999.90;;;16.10;99.90;;;;;;5054156;28;20440;-65
2022/10/08 08:30:38;;;;;;;1999.90;999.90;;;16.00;99.90;;;;;;5059682;28;20454;-65
2022/10/08 08:33:04;;;;;;;1999.90;999.90;;;16.00;99.90;;;;;;5066011;28;20823;-65
2022/10/08 08:35:31;;;;;;;1999.90;999.90;;;16.00;99.90;;;;;;5060221;28;20468;-65
2022/10/08 08:37:58;;;;;;;1999.90;999.90;;;16.10;99.90;;;;;;5049783;28;20502;-66
2022/10/08 08:40:27;;;;;;;1999.90;999.90;;;16.30;99.90;;;;;;5049839;28;20459;-67
2022/10/08 08:42:56;;;;;;;1999.90;999.90;;;16.40;99.90;;;;;;5054164;28;20447;-66
2022/10/08 08:45:25;;;;;;;1999.90;999.90;;;16.60;99.90;;;;;;5060852;28;20467;-64
2022/10/08 08:48:04;;;;;;;1999.90;999.90;;;16.80;99.90;;;;;;5063723;28;20453;-66
2022/10/08 08:50:34;;;;;;;1999.90;999.90;;;16.90;99.90;;;;;;5059662;28;20452;-66
2022/10/08 08:53:02;;;;;;;1999.90;999.90;;;17.10;99.90;;;;;;5059599;28;20957;-66
2022/10/08 08:55:35;;;;;;;1999.90;999.90;;;17.20;99.90;;;;;;5061981;28;20462;-66
2022/10/08 08:58:19;;;;;;;1999.90;999.90;;;17.30;99.90;;;;;;5057104;28;20440;-66
2022/10/08 09:00:51;;;;;;;1999.90;999.90;;;17.30;99.90;;;;;;5055123;28;20831;-67
2022/10/08 09:03:21;;;;;;;1999.90;999.90;;;17.30;99.90;;;;;;5060714;28;20451;-63
2022/10/08 09:05:52;;;;;;;1999.90;999.90;;;17.50;99.90;;;;;;5059721;28;20486;-65
2022/10/08 09:08:23;;;;;;;1999.90;999.90;;;17.60;99.90;;;;;;5056237;28;20448;-66
2022/10/08 09:10:55;;;;;;;1999.90;999.90;;;17.70;99.90;;;;;;5055930;28;20529;-65
2022/10/08 09:13:25;;;;;;;1999.90;999.90;;;17.70;99.90;;;;;;5058563;28;20455;-66
2022/10/08 09:15:54;;;;;;;1999.90;999.90;;;17.80;99.90;;;;;;5047985;28;20861;-66
2022/10/08 09:18:21;;;;;;;1999.90;999.90;;;17.90;99.90;;;;;;5059892;28;20439;-65
2022/10/08 09:20:48;;;;;;;1999.90;999.90;;;18.00;99.90;;;;;;5060179;28;20470;-65
2022/10/08 09:23:17;;;;;;;1999.90;999.90;;;18.20;99.90;;;;;;5057753;28;20451;-65
2022/10/08 09:25:49;;;;;;;1999.90;999.90;;;18.20;99.90;;;;;;5057485;28;20466;-66
2022/10/08 09:28:40;;;;;;;1999.90;999.90;;;18.20;99.90;;;;;;5056570;28;20923;-64
2022/10/08 09:31:30;;;;;;;1999.90;999.90;;;18.20;99.90;;;;;;5056294;28;20443;-65
2022/10/08 09:34:04;;;;;;;1999.90;999.90;;;18.10;99.90;;;;;;5055110;28;20835;-65
2022/10/08 09:36:35;;;;;;;1999.90;999.90;;;18.00;99.90;;;;;;5058685;28;21003;-65
2022/10/08 09:39:04;;;;;;;1999.90;999.90;;;18.10;99.90;;;;;;5056048;28;20447;-66
2022/10/08 09:41:31;;;;;;;1999.90;999.90;;;18.10;99.90;;;;;;5057823;28;20463;-65
2022/10/08 09:44:20;;;;;;;1999.90;999.90;;;18.00;99.90;;;;;;5057219;28;20448;-66
2022/10/08 09:46:48;;;;;;;1999.90;999.90;;;18.00;99.90;;;;;;5057407;28;20548;-67
2022/10/08 09:49:37;;;;;;;1999.90;999.90;;;18.00;99.90;;;;;;5058222;28;20435;-67
2022/10/08 09:52:11;;;;;;;1999.90;999.90;;;18.00;99.90;;;;;;5054166;28;20604;-65
2022/10/08 09:54:45;;;;;;;1999.90;999.90;;;17.80;99.90;;;;;;5054717;28;20448;-66
2022/10/08 09:57:15;;;;;;;1999.90;999.90;;;17.90;99.90;;;;;;5061223;28;20478;-66
2022/10/08 09:59:50;;;;;;;1999.90;999.90;;;18.00;99.90;;;;;;5058562;28;20436;-66
2022/10/08 10:02:31;;;;;;;1999.90;999.90;;;18.10;99.90;;;;;;5056760;28;20843;-66
2022/10/08 10:04:58;;;;;;;1999.90;999.90;;;18.20;99.90;;;;;;5057804;28;20482;-65
2022/10/08 10:07:36;;;;;;;1999.90;999.90;;;18.20;99.90;;;;;;5055538;28;20435;-66
2022/10/08 10:10:05;;;;;;;1999.90;999.90;;;18.20;99.90;;;;;;5058299;28;20450;-65
2022/10/08 10:12:36;;;;;;;1999.90;999.90;;;18.20;99.90;;;;;;5058377;28;20474;-65
2022/10/08 10:15:11;;;;;;;1999.90;999.90;;;18.20;99.90;;;;;;5060761;28;20472;-66
2022/10/08 10:17:43;;;;;;;1999.90;999.90;;;18.10;99.90;;;;;;5061365;28;20475;-67
2022/10/08 10:20:17;;;;;;;1999.90;999.90;;;18.30;99.90;;;;;;5062188;28;20450;-66
2022/10/08 10:22:51;;;;;;;1999.90;999.90;;;18.60;99.90;;;;;;5061309;28;20451;-66
2022/10/08 10:25:29;;;;;;;1999.90;999.90;;;18.70;99.90;;;;;;5061005;28;20477;-66
2022/10/08 10:28:00;;;;;;;1999.90;999.90;;;18.60;99.90;;;;;;5062777;28;20440;-65
2022/10/08 10:30:30;;;;;;;1999.90;999.90;;;18.50;99.90;;;;;;5062907;28;20446;-65
2022/10/08 10:33:02;;;;;;;1999.90;999.90;;;18.60;99.90;;;;;;5061931;28;20450;-66
2022/10/08 10:35:30;;;;;;;1999.90;999.90;;;18.80;99.90;;;;;;5062035;28;20887;-66
2022/10/08 10:38:03;;;;;;;1999.90;999.90;;;19.00;99.90;;;;;;5061932;28;20487;-66
2022/10/08 10:40:32;;;;;;;1999.90;999.90;;;19.10;99.90;;;;;;5060150;28;20443;-66
2022/10/08 10:43:23;;;;;;;1999.90;999.90;;;19.30;99.90;;;;;;5062008;28;20550;-66
2022/10/08 10:45:57;;;;;;;1999.90;999.90;;;19.70;99.90;;;;;;5060229;28;20462;-66
2022/10/08 10:48:24;;;;;;;1999.90;999.90;;;19.30;99.90;;;;;;5063393;28;20447;-67
2022/10/08 10:51:03;;;;;;;1999.90;999.90;;;18.80;99.90;;;;;;5062773;28;20446;-67
2022/10/08 10:53:41;;;;;;;1999.90;999.90;;;18.80;99.90;;;;;;5062852;28;20447;-66
2022/10/08 10:56:13;;;;;;;1999.90;999.90;;;19.40;99.90;;;;;;5061265;28;20488;-66
2022/10/08 10:58:52;;;;;;;1999.90;999.90;;;19.90;99.80;;;;;;5064072;28;20974;-66
2022/10/08 11:01:31;;;;;;;1999.90;999.90;;;19.90;98.80;;;;;;5063030;28;20658;-66
2022/10/08 11:04:04;;;;;;;1999.90;999.90;;;19.70;98.80;;;;;;5061773;28;20496;-66
2022/10/08 11:06:46;;;;;;;1999.90;999.90;;;20.00;98.50;;;;;;5062453;28;20463;-66
2022/10/08 11:09:25;;;;;;;1999.90;999.90;;;20.30;99.50;;;;;;5057974;28;20447;-66
2022/10/08 11:11:54;;;;;;;1999.90;999.90;;;20.60;97.90;;;;;;5056825;28;20470;-65
2022/10/08 11:14:41;;;;;;;1999.90;999.90;;;20.60;97.90;;;;;;5058017;28;20536;-66
2022/10/08 11:17:26;;;;;;;1999.90;999.90;;;20.80;97.90;;;;;;5063072;28;20482;-66
2022/10/08 11:19:58;;;;;;;1999.90;999.90;;;20.70;97.50;;;;;;5061425;28;20455;-66
2022/10/08 11:22:30;;;;;;;1999.90;999.90;;;20.70;96.90;;;;;;5057547;28;20444;-66
2022/10/08 11:25:11;;;;;;;1999.90;999.90;;;21.00;97.50;;;;;;5060864;28;21015;-66
2022/10/08 11:27:47;;;;;;;1999.90;999.90;;;21.20;96.20;;;;;;5057246;28;20526;-66
2022/10/08 11:30:30;;;;;;;1999.90;999.90;;;20.90;96.20;;;;;;5059579;28;20461;-66
2022/10/08 11:32:59;;;;;;;1999.90;999.90;;;20.90;96.40;;;;;;5058608;28;20436;-67
2022/10/08 11:35:32;;;;;;;1999.90;999.90;;;20.90;96.80;;;;;;5061477;28;20467;-66
2022/10/08 11:38:06;;;;;;;1999.90;999.90;;;21.00;95.80;;;;;;5061710;28;20493;-66
2022/10/08 11:40:39;;;;;;;1999.90;999.90;;;20.90;95.90;;;;;;5060861;28;20975;-66
2022/10/08 11:43:10;;;;;;;1999.90;999.90;;;21.30;96.40;;;;;;5062364;28;20462;-66
2022/10/08 11:45:39;;;;;;;1999.90;999.90;;;21.50;95.70;;;;;;5060861;28;20460;-66
2022/10/08 11:48:29;;;;;;;1999.90;999.90;;;21.60;95.20;;;;;;5060879;28;20451;-66
2022/10/08 11:51:31;;;;;;;1999.90;999.90;;;21.40;94.90;;;;;;5059290;28;20937;-66
2022/10/08 11:54:23;;;;;;;1999.90;999.90;;;21.50;95.00;;;;;;5063890;28;20442;-67
2022/10/08 11:56:52;;;;;;;1999.90;999.90;;;21.30;94.30;;;;;;5068965;28;20491;-66
2022/10/08 11:59:31;;;;;;;1999.90;999.90;;;20.60;94.90;;;;;;5070509;28;20924;-66
2022/10/08 12:02:00;;;;;;;1999.90;999.90;;;20.70;95.40;;;;;;5060409;28;21144;-66
2022/10/08 12:04:34;;;;;;;1999.90;999.90;;;21.20;96.00;;;;;;5054531;28;20452;-67
2022/10/08 12:07:20;;;;;;;1999.90;999.90;;;21.50;94.50;;;;;;5051877;28;20450;-66
2022/10/08 12:10:14;;;;;;;1999.90;999.90;;;21.40;94.40;;;;;;5070649;28;20447;-66
2022/10/08 12:13:24;;;;;;;1999.90;999.90;;;21.30;94.80;;;;;;5070232;28;20458;-66
2022/10/08 12:16:05;;;;;;;1999.90;999.90;;;21.80;95.10;;;;;;5061625;28;20465;-67
2022/10/08 12:18:50;;;;;;;1999.90;999.90;;;21.70;94.50;;;;;;5062237;28;20479;-66